sensor_id;sensor_type;location;lat;lon;timestamp;temperature;humidity
782;DHT22;374;52.568;13.402;2023-07-02T00:01:06;21.10;99.90
782;DHT22;374;52.568;13.402;2023-07-02T00:03:32;21.10;99.90
782;DHT22;374;52.568;13.402;2023-07-02T00:05:57;21.10;99.90
782;DHT22;374;52.568;13.402;2023-07-02T00:08:23;21.10;99.90
782;DHT22;374;52.568;13.402;2023-07-02T00:10:48;21.10;99.90
782;DHT22;374;52.568;13.402;2023-07-02T00:13:14;21.10;99.90
782;DHT22;374;52.568;13.402;2023-07-02T00:15:40;21.00;99.90
782;DHT22;374;52.568;13.402;2023-07-02T00:18:06;21.10;99.90
782;DHT22;374;52.568;13.402;2023-07-02T00:20:33;21.10;99.90
782;DHT22;374;52.568;13.402;2023-07-02T00:23:03;21.10;99.90
782;DHT22;374;52.568;13.402;2023-07-02T00:25:29;21.00;99.90
782;DHT22;374;52.568;13.402;2023-07-02T00:27:55;21.00;99.90
782;DHT22;374;52.568;13.402;2023-07-02T00:30:20;21.00;99.90
782;DHT22;374;52.568;13.402;2023-07-02T00:32:46;21.00;99.90
782;DHT22;374;52.568;13.402;2023-07-02T00:35:11;20.90;99.90
782;DHT22;374;52.568;13.402;2023-07-02T00:37:37;20.90;99.90
782;DHT22;374;52.568;13.402;2023-07-02T00:40:03;20.90;99.90
782;DHT22;374;52.568;13.402;2023-07-02T00:42:28;20.90;99.90
782;DHT22;374;52.568;13.402;2023-07-02T00:44:55;20.80;99.90
782;DHT22;374;52.568;13.402;2023-07-02T00:47:22;20.90;99.90
782;DHT22;374;52.568;13.402;2023-07-02T00:49:48;20.90;99.90
782;DHT22;374;52.568;13.402;2023-07-02T00:52:14;20.90;99.90
782;DHT22;374;52.568;13.402;2023-07-02T00:54:40;20.90;99.90
782;DHT22;374;52.568;13.402;2023-07-02T00:57:06;21.00;99.90
782;DHT22;374;52.568;13.402;2023-07-02T00:59:33;21.10;99.90
782;DHT22;374;52.568;13.402;2023-07-02T01:02:01;21.20;99.90
782;DHT22;374;52.568;13.402;2023-07-02T01:04:26;21.20;99.90
782;DHT22;374;52.568;13.402;2023-07-02T01:06:53;21.20;99.90
782;DHT22;374;52.568;13.402;2023-07-02T01:09:23;21.10;99.90
782;DHT22;374;52.568;13.402;2023-07-02T01:11:59;21.00;99.90
782;DHT22;374;52.568;13.402;2023-07-02T01:14:41;20.90;99.90
782;DHT22;374;52.568;13.402;2023-07-02T01:17:08;20.90;99.90
782;DHT22;374;52.568;13.402;2023-07-02T01:19:46;20.80;99.90
782;DHT22;374;52.568;13.402;2023-07-02T01:22:17;20.80;99.90
782;DHT22;374;52.568;13.402;2023-07-02T01:24:43;20.80;99.90
782;DHT22;374;52.568;13.402;2023-07-02T01:27:08;20.70;99.90
782;DHT22;374;52.568;13.402;2023-07-02T01:29:35;20.70;99.90
782;DHT22;374;52.568;13.402;2023-07-02T01:32:02;20.70;99.90
782;DHT22;374;52.568;13.402;2023-07-02T01:34:28;20.70;99.90
782;DHT22;374;52.568;13.402;2023-07-02T01:36:54;20.70;99.90
782;DHT22;374;52.568;13.402;2023-07-02T01:39:19;20.70;99.90
782;DHT22;374;52.568;13.402;2023-07-02T01:41:52;20.70;99.90
782;DHT22;374;52.568;13.402;2023-07-02T01:44:19;20.60;99.90
782;DHT22;374;52.568;13.402;2023-07-02T01:46:46;20.60;99.90
782;DHT22;374;52.568;13.402;2023-07-02T01:49:18;20.60;99.90
782;DHT22;374;52.568;13.402;2023-07-02T01:51:54;20.60;99.90
782;DHT22;374;52.568;13.402;2023-07-02T01:54:22;20.60;99.90
782;DHT22;374;52.568;13.402;2023-07-02T01:56:48;20.60;99.90
782;DHT22;374;52.568;13.402;2023-07-02T01:59:13;20.50;99.90
782;DHT22;374;52.568;13.402;2023-07-02T02:01:39;20.50;99.90
782;DHT22;374;52.568;13.402;2023-07-02T02:04:08;20.50;99.90
782;DHT22;374;52.568;13.402;2023-07-02T02:06:34;20.50;99.90
782;DHT22;374;52.568;13.402;2023-07-02T02:09:00;20.50;99.90
782;DHT22;374;52.568;13.402;2023-07-02T02:11:26;20.50;99.90
782;DHT22;374;52.568;13.402;2023-07-02T02:13:51;20.50;99.90
782;DHT22;374;52.568;13.402;2023-07-02T02:16:17;20.50;99.90
782;DHT22;374;52.568;13.402;2023-07-02T02:18:43;20.50;99.90
782;DHT22;374;52.568;13.402;2023-07-02T02:21:08;20.50;99.90
782;DHT22;374;52.568;13.402;2023-07-02T02:23:34;20.40;99.90
782;DHT22;374;52.568;13.402;2023-07-02T02:25:59;20.40;99.90
782;DHT22;374;52.568;13.402;2023-07-02T02:28:25;20.40;99.90
782;DHT22;374;52.568;13.402;2023-07-02T02:30:50;20.40;99.90
782;DHT22;374;52.568;13.402;2023-07-02T02:33:16;20.40;99.90
782;DHT22;374;52.568;13.402;2023-07-02T02:35:41;20.40;99.90
782;DHT22;374;52.568;13.402;2023-07-02T02:38:07;20.40;99.90
782;DHT22;374;52.568;13.402;2023-07-02T02:40:32;20.40;99.90
782;DHT22;374;52.568;13.402;2023-07-02T02:42:58;20.30;99.90
782;DHT22;374;52.568;13.402;2023-07-02T02:45:23;20.30;99.90
782;DHT22;374;52.568;13.402;2023-07-02T02:47:49;20.30;99.90
782;DHT22;374;52.568;13.402;2023-07-02T02:50:14;20.30;99.90
782;DHT22;374;52.568;13.402;2023-07-02T02:52:42;20.30;99.90
782;DHT22;374;52.568;13.402;2023-07-02T02:55:09;20.30;99.90
782;DHT22;374;52.568;13.402;2023-07-02T02:57:36;20.20;99.90
782;DHT22;374;52.568;13.402;2023-07-02T03:00:01;20.30;99.90
782;DHT22;374;52.568;13.402;2023-07-02T03:02:27;20.20;99.90
782;DHT22;374;52.568;13.402;2023-07-02T03:04:52;20.20;99.90
782;DHT22;374;52.568;13.402;2023-07-02T03:07:19;20.20;99.90
782;DHT22;374;52.568;13.402;2023-07-02T03:09:44;20.30;99.90
782;DHT22;374;52.568;13.402;2023-07-02T03:12:10;20.20;99.90
782;DHT22;374;52.568;13.402;2023-07-02T03:14:35;20.20;99.90
782;DHT22;374;52.568;13.402;2023-07-02T03:17:01;20.20;99.90
782;DHT22;374;52.568;13.402;2023-07-02T03:19:26;20.10;99.90
782;DHT22;374;52.568;13.402;2023-07-02T03:21:52;20.10;99.90
782;DHT22;374;52.568;13.402;2023-07-02T03:24:17;20.10;99.90
782;DHT22;374;52.568;13.402;2023-07-02T03:26:43;20.10;99.90
782;DHT22;374;52.568;13.402;2023-07-02T03:29:09;20.10;99.90
782;DHT22;374;52.568;13.402;2023-07-02T03:31:35;20.10;99.90
782;DHT22;374;52.568;13.402;2023-07-02T03:34:08;20.00;99.90
782;DHT22;374;52.568;13.402;2023-07-02T03:36:34;20.00;99.90
782;DHT22;374;52.568;13.402;2023-07-02T03:38:59;20.00;99.90
782;DHT22;374;52.568;13.402;2023-07-02T03:41:25;20.00;99.90
782;DHT22;374;52.568;13.402;2023-07-02T03:43:50;20.10;99.90
782;DHT22;374;52.568;13.402;2023-07-02T03:46:16;20.00;99.90
782;DHT22;374;52.568;13.402;2023-07-02T03:48:41;20.00;99.90
782;DHT22;374;52.568;13.402;2023-07-02T03:51:07;20.00;99.90
782;DHT22;374;52.568;13.402;2023-07-02T03:53:32;20.00;99.90
782;DHT22;374;52.568;13.402;2023-07-02T03:55:58;20.00;99.90
782;DHT22;374;52.568;13.402;2023-07-02T03:58:24;19.90;99.90
782;DHT22;374;52.568;13.402;2023-07-02T04:00:49;20.00;99.90
782;DHT22;374;52.568;13.402;2023-07-02T04:03:16;19.90;99.90
782;DHT22;374;52.568;13.402;2023-07-02T04:05:42;19.90;99.90
782;DHT22;374;52.568;13.402;2023-07-02T04:08:07;19.90;99.90
782;DHT22;374;52.568;13.402;2023-07-02T04:10:33;19.90;99.90
782;DHT22;374;52.568;13.402;2023-07-02T04:12:58;19.90;99.90
782;DHT22;374;52.568;13.402;2023-07-02T04:15:24;19.80;99.90
782;DHT22;374;52.568;13.402;2023-07-02T04:17:51;19.90;99.90
782;DHT22;374;52.568;13.402;2023-07-02T04:20:16;19.80;99.90
782;DHT22;374;52.568;13.402;2023-07-02T04:22:44;19.80;99.90
782;DHT22;374;52.568;13.402;2023-07-02T04:25:11;19.80;99.90
782;DHT22;374;52.568;13.402;2023-07-02T04:27:36;19.80;99.90
782;DHT22;374;52.568;13.402;2023-07-02T04:30:02;19.80;99.90
782;DHT22;374;52.568;13.402;2023-07-02T04:32:28;19.80;99.90
782;DHT22;374;52.568;13.402;2023-07-02T04:34:53;19.80;99.90
782;DHT22;374;52.568;13.402;2023-07-02T04:37:19;19.80;99.90
782;DHT22;374;52.568;13.402;2023-07-02T04:39:44;19.80;99.90
782;DHT22;374;52.568;13.402;2023-07-02T04:42:10;19.70;99.90
782;DHT22;374;52.568;13.402;2023-07-02T04:44:38;19.80;99.90
782;DHT22;374;52.568;13.402;2023-07-02T04:47:04;19.80;99.90
782;DHT22;374;52.568;13.402;2023-07-02T04:49:29;19.80;99.90
782;DHT22;374;52.568;13.402;2023-07-02T04:51:55;19.80;99.90
782;DHT22;374;52.568;13.402;2023-07-02T04:54:21;19.70;99.90
782;DHT22;374;52.568;13.402;2023-07-02T04:56:47;19.80;99.90
782;DHT22;374;52.568;13.402;2023-07-02T04:59:13;19.80;99.90
782;DHT22;374;52.568;13.402;2023-07-02T05:01:39;19.80;99.90
782;DHT22;374;52.568;13.402;2023-07-02T05:04:05;19.80;99.90
782;DHT22;374;52.568;13.402;2023-07-02T05:06:31;19.80;99.90
782;DHT22;374;52.568;13.402;2023-07-02T05:08:56;19.80;99.90
782;DHT22;374;52.568;13.402;2023-07-02T05:11:22;19.70;99.90
782;DHT22;374;52.568;13.402;2023-07-02T05:13:47;19.70;99.90
782;DHT22;374;52.568;13.402;2023-07-02T05:16:13;19.70;99.90
782;DHT22;374;52.568;13.402;2023-07-02T05:18:39;19.70;99.90
782;DHT22;374;52.568;13.402;2023-07-02T05:21:05;19.70;99.90
782;DHT22;374;52.568;13.402;2023-07-02T05:23:30;19.70;99.90
782;DHT22;374;52.568;13.402;2023-07-02T05:25:55;19.70;99.90
782;DHT22;374;52.568;13.402;2023-07-02T05:28:21;19.70;99.90
782;DHT22;374;52.568;13.402;2023-07-02T05:30:46;19.70;99.90
782;DHT22;374;52.568;13.402;2023-07-02T05:33:12;19.70;99.90
782;DHT22;374;52.568;13.402;2023-07-02T05:35:38;19.70;99.90
782;DHT22;374;52.568;13.402;2023-07-02T05:38:03;19.70;99.90
782;DHT22;374;52.568;13.402;2023-07-02T05:40:29;19.70;99.90
782;DHT22;374;52.568;13.402;2023-07-02T05:42:54;19.70;99.90
782;DHT22;374;52.568;13.402;2023-07-02T05:45:20;19.60;99.90
782;DHT22;374;52.568;13.402;2023-07-02T05:47:45;19.70;99.90
782;DHT22;374;52.568;13.402;2023-07-02T05:50:11;19.70;99.90
782;DHT22;374;52.568;13.402;2023-07-02T05:52:36;19.70;99.90
782;DHT22;374;52.568;13.402;2023-07-02T05:55:02;19.70;99.90
782;DHT22;374;52.568;13.402;2023-07-02T05:57:28;19.70;99.90
782;DHT22;374;52.568;13.402;2023-07-02T05:59:53;19.70;99.90
782;DHT22;374;52.568;13.402;2023-07-02T06:02:19;19.70;99.90
782;DHT22;374;52.568;13.402;2023-07-02T06:04:44;19.70;99.90
782;DHT22;374;52.568;13.402;2023-07-02T06:07:10;19.80;99.90
782;DHT22;374;52.568;13.402;2023-07-02T06:09:35;19.80;99.90
782;DHT22;374;52.568;13.402;2023-07-02T06:12:00;19.80;99.90
782;DHT22;374;52.568;13.402;2023-07-02T06:14:26;19.80;99.90
782;DHT22;374;52.568;13.402;2023-07-02T06:16:52;19.80;99.90
782;DHT22;374;52.568;13.402;2023-07-02T06:19:18;19.80;99.90
782;DHT22;374;52.568;13.402;2023-07-02T06:21:43;19.80;99.90
782;DHT22;374;52.568;13.402;2023-07-02T06:24:09;19.80;99.90
782;DHT22;374;52.568;13.402;2023-07-02T06:26:34;19.80;99.90
782;DHT22;374;52.568;13.402;2023-07-02T06:29:00;19.70;99.90
782;DHT22;374;52.568;13.402;2023-07-02T06:31:29;19.80;99.90
782;DHT22;374;52.568;13.402;2023-07-02T06:33:54;19.70;99.90
782;DHT22;374;52.568;13.402;2023-07-02T06:36:20;19.80;99.90
782;DHT22;374;52.568;13.402;2023-07-02T06:38:46;19.70;99.90
782;DHT22;374;52.568;13.402;2023-07-02T06:41:11;19.80;99.90
782;DHT22;374;52.568;13.402;2023-07-02T06:43:36;19.80;99.90
782;DHT22;374;52.568;13.402;2023-07-02T06:46:02;19.80;99.90
782;DHT22;374;52.568;13.402;2023-07-02T06:48:28;19.80;99.90
782;DHT22;374;52.568;13.402;2023-07-02T06:50:55;19.80;99.90
782;DHT22;374;52.568;13.402;2023-07-02T06:53:21;19.90;99.90
782;DHT22;374;52.568;13.402;2023-07-02T06:55:46;19.90;99.90
782;DHT22;374;52.568;13.402;2023-07-02T06:58:12;19.90;99.90
782;DHT22;374;52.568;13.402;2023-07-02T07:00:37;19.90;99.90
782;DHT22;374;52.568;13.402;2023-07-02T07:03:03;19.90;99.90
782;DHT22;374;52.568;13.402;2023-07-02T07:05:32;19.90;99.90
782;DHT22;374;52.568;13.402;2023-07-02T07:07:59;20.00;99.90
782;DHT22;374;52.568;13.402;2023-07-02T07:10:25;19.90;99.90
782;DHT22;374;52.568;13.402;2023-07-02T07:12:51;19.90;99.90
782;DHT22;374;52.568;13.402;2023-07-02T07:15:17;19.90;99.90
782;DHT22;374;52.568;13.402;2023-07-02T07:17:42;19.90;99.90
782;DHT22;374;52.568;13.402;2023-07-02T07:20:08;19.90;99.90
782;DHT22;374;52.568;13.402;2023-07-02T07:22:33;20.00;99.90
782;DHT22;374;52.568;13.402;2023-07-02T07:24:59;19.90;99.90
782;DHT22;374;52.568;13.402;2023-07-02T07:27:25;20.00;99.90
782;DHT22;374;52.568;13.402;2023-07-02T07:29:50;20.00;99.90
782;DHT22;374;52.568;13.402;2023-07-02T07:32:16;20.00;99.90
782;DHT22;374;52.568;13.402;2023-07-02T07:34:42;20.00;99.90
782;DHT22;374;52.568;13.402;2023-07-02T07:37:09;20.10;99.90
782;DHT22;374;52.568;13.402;2023-07-02T07:39:36;20.10;99.90
782;DHT22;374;52.568;13.402;2023-07-02T07:42:01;20.10;99.90
782;DHT22;374;52.568;13.402;2023-07-02T07:44:27;20.10;99.90
782;DHT22;374;52.568;13.402;2023-07-02T07:46:55;20.10;99.90
782;DHT22;374;52.568;13.402;2023-07-02T07:49:21;20.10;99.90
782;DHT22;374;52.568;13.402;2023-07-02T07:51:47;20.10;99.90
782;DHT22;374;52.568;13.402;2023-07-02T07:54:12;20.10;99.90
782;DHT22;374;52.568;13.402;2023-07-02T07:56:38;20.10;99.90
782;DHT22;374;52.568;13.402;2023-07-02T07:59:03;20.10;99.90
782;DHT22;374;52.568;13.402;2023-07-02T08:01:29;20.00;99.90
782;DHT22;374;52.568;13.402;2023-07-02T08:03:55;20.10;99.90
782;DHT22;374;52.568;13.402;2023-07-02T08:06:20;20.10;99.90
782;DHT22;374;52.568;13.402;2023-07-02T08:08:55;20.20;99.90
782;DHT22;374;52.568;13.402;2023-07-02T08:11:20;20.20;99.90
782;DHT22;374;52.568;13.402;2023-07-02T08:13:46;20.20;99.90
782;DHT22;374;52.568;13.402;2023-07-02T08:16:11;20.20;99.90
782;DHT22;374;52.568;13.402;2023-07-02T08:18:38;20.30;99.90
782;DHT22;374;52.568;13.402;2023-07-02T08:21:04;20.30;99.90
782;DHT22;374;52.568;13.402;2023-07-02T08:23:31;20.30;99.90
782;DHT22;374;52.568;13.402;2023-07-02T08:25:57;20.30;99.90
782;DHT22;374;52.568;13.402;2023-07-02T08:28:23;20.40;99.90
782;DHT22;374;52.568;13.402;2023-07-02T08:30:48;20.40;99.90
782;DHT22;374;52.568;13.402;2023-07-02T08:33:13;20.30;99.90
782;DHT22;374;52.568;13.402;2023-07-02T08:35:39;20.30;99.90
782;DHT22;374;52.568;13.402;2023-07-02T08:38:05;20.30;99.90
782;DHT22;374;52.568;13.402;2023-07-02T08:40:30;20.30;99.90
782;DHT22;374;52.568;13.402;2023-07-02T08:42:56;20.30;99.90
782;DHT22;374;52.568;13.402;2023-07-02T08:45:23;20.30;99.90
782;DHT22;374;52.568;13.402;2023-07-02T08:47:50;20.30;99.90
782;DHT22;374;52.568;13.402;2023-07-02T08:50:16;20.20;99.90
782;DHT22;374;52.568;13.402;2023-07-02T08:52:42;20.20;99.90
782;DHT22;374;52.568;13.402;2023-07-02T08:55:10;20.20;99.90
782;DHT22;374;52.568;13.402;2023-07-02T08:57:35;20.30;99.90
782;DHT22;374;52.568;13.402;2023-07-02T09:00:10;20.30;99.90
782;DHT22;374;52.568;13.402;2023-07-02T09:02:36;20.30;99.90
782;DHT22;374;52.568;13.402;2023-07-02T09:05:02;20.30;99.90
782;DHT22;374;52.568;13.402;2023-07-02T09:07:28;20.30;99.90
782;DHT22;374;52.568;13.402;2023-07-02T09:09:54;20.30;99.90
782;DHT22;374;52.568;13.402;2023-07-02T09:12:29;20.30;99.90
782;DHT22;374;52.568;13.402;2023-07-02T09:15:03;20.30;99.90
782;DHT22;374;52.568;13.402;2023-07-02T09:17:36;20.30;99.90
782;DHT22;374;52.568;13.402;2023-07-02T09:20:04;20.30;99.90
782;DHT22;374;52.568;13.402;2023-07-02T09:22:32;20.30;99.90
782;DHT22;374;52.568;13.402;2023-07-02T09:24:59;20.30;99.90
782;DHT22;374;52.568;13.402;2023-07-02T09:27:38;20.30;99.90
782;DHT22;374;52.568;13.402;2023-07-02T09:30:08;20.30;99.90
782;DHT22;374;52.568;13.402;2023-07-02T09:32:33;20.30;99.90
782;DHT22;374;52.568;13.402;2023-07-02T09:34:59;20.40;99.90
782;DHT22;374;52.568;13.402;2023-07-02T09:37:25;20.40;99.90
782;DHT22;374;52.568;13.402;2023-07-02T09:39:51;20.40;99.90
782;DHT22;374;52.568;13.402;2023-07-02T09:42:19;20.50;99.90
782;DHT22;374;52.568;13.402;2023-07-02T09:44:46;20.50;99.90
782;DHT22;374;52.568;13.402;2023-07-02T09:47:12;20.50;99.90
782;DHT22;374;52.568;13.402;2023-07-02T09:49:41;20.60;99.90
782;DHT22;374;52.568;13.402;2023-07-02T09:52:08;20.60;99.90
782;DHT22;374;52.568;13.402;2023-07-02T09:54:34;20.70;99.90
782;DHT22;374;52.568;13.402;2023-07-02T09:57:00;20.70;99.90
782;DHT22;374;52.568;13.402;2023-07-02T09:59:26;20.70;99.90
782;DHT22;374;52.568;13.402;2023-07-02T10:01:52;20.70;99.90
782;DHT22;374;52.568;13.402;2023-07-02T10:04:19;20.70;99.90
782;DHT22;374;52.568;13.402;2023-07-02T10:06:52;20.70;99.90
782;DHT22;374;52.568;13.402;2023-07-02T10:09:19;20.70;99.90
782;DHT22;374;52.568;13.402;2023-07-02T10:11:44;20.80;99.90
782;DHT22;374;52.568;13.402;2023-07-02T10:14:10;20.80;99.90
782;DHT22;374;52.568;13.402;2023-07-02T10:16:49;20.80;99.90
782;DHT22;374;52.568;13.402;2023-07-02T10:19:15;20.80;99.90
782;DHT22;374;52.568;13.402;2023-07-02T10:21:41;20.90;99.90
782;DHT22;374;52.568;13.402;2023-07-02T10:24:14;21.00;99.90
782;DHT22;374;52.568;13.402;2023-07-02T10:27:09;21.00;99.90
782;DHT22;374;52.568;13.402;2023-07-02T10:29:35;20.90;99.90
782;DHT22;374;52.568;13.402;2023-07-02T10:32:00;20.90;99.90
782;DHT22;374;52.568;13.402;2023-07-02T10:34:33;20.80;99.90
782;DHT22;374;52.568;13.402;2023-07-02T10:37:00;20.80;99.90
782;DHT22;374;52.568;13.402;2023-07-02T10:39:26;20.80;99.90
782;DHT22;374;52.568;13.402;2023-07-02T10:41:52;20.80;99.90
782;DHT22;374;52.568;13.402;2023-07-02T10:44:17;20.80;99.90
782;DHT22;374;52.568;13.402;2023-07-02T10:46:47;20.80;99.90
782;DHT22;374;52.568;13.402;2023-07-02T10:49:17;20.80;99.90
782;DHT22;374;52.568;13.402;2023-07-02T10:51:42;20.80;99.80
782;DHT22;374;52.568;13.402;2023-07-02T10:54:08;20.80;99.90
782;DHT22;374;52.568;13.402;2023-07-02T10:56:34;20.80;99.90
782;DHT22;374;52.568;13.402;2023-07-02T10:59:00;20.80;99.80
782;DHT22;374;52.568;13.402;2023-07-02T11:01:28;20.80;99.50
782;DHT22;374;52.568;13.402;2023-07-02T11:03:57;20.70;98.80
782;DHT22;374;52.568;13.402;2023-07-02T11:06:23;20.70;99.40
782;DHT22;374;52.568;13.402;2023-07-02T11:08:49;20.80;98.00
782;DHT22;374;52.568;13.402;2023-07-02T11:11:14;20.70;99.20
782;DHT22;374;52.568;13.402;2023-07-02T11:13:50;20.70;98.80
782;DHT22;374;52.568;13.402;2023-07-02T11:16:26;20.80;98.30
782;DHT22;374;52.568;13.402;2023-07-02T11:19:07;20.70;99.50
782;DHT22;374;52.568;13.402;2023-07-02T11:21:33;20.70;99.40
782;DHT22;374;52.568;13.402;2023-07-02T11:24:06;20.70;99.60
782;DHT22;374;52.568;13.402;2023-07-02T11:26:37;20.70;99.50
782;DHT22;374;52.568;13.402;2023-07-02T11:29:03;20.70;99.40
782;DHT22;374;52.568;13.402;2023-07-02T11:31:29;20.80;99.40
782;DHT22;374;52.568;13.402;2023-07-02T11:33:54;20.80;98.40
782;DHT22;374;52.568;13.402;2023-07-02T11:36:22;20.80;98.00
782;DHT22;374;52.568;13.402;2023-07-02T11:38:49;20.80;98.50
782;DHT22;374;52.568;13.402;2023-07-02T11:41:15;20.80;98.20
782;DHT22;374;52.568;13.402;2023-07-02T11:43:41;20.80;98.60
782;DHT22;374;52.568;13.402;2023-07-02T11:46:06;20.80;97.30
782;DHT22;374;52.568;13.402;2023-07-02T11:48:32;20.80;96.50
782;DHT22;374;52.568;13.402;2023-07-02T11:50:57;20.80;97.30
782;DHT22;374;52.568;13.402;2023-07-02T11:53:23;20.80;98.00
782;DHT22;374;52.568;13.402;2023-07-02T11:55:48;20.80;98.50
782;DHT22;374;52.568;13.402;2023-07-02T11:58:14;20.80;97.80
782;DHT22;374;52.568;13.402;2023-07-02T12:00:39;20.80;97.10
782;DHT22;374;52.568;13.402;2023-07-02T12:03:05;20.80;96.70
782;DHT22;374;52.568;13.402;2023-07-02T12:05:30;20.80;94.60
782;DHT22;374;52.568;13.402;2023-07-02T12:07:56;20.80;95.80
782;DHT22;374;52.568;13.402;2023-07-02T12:10:21;20.80;96.20
782;DHT22;374;52.568;13.402;2023-07-02T12:12:47;20.80;96.20
782;DHT22;374;52.568;13.402;2023-07-02T12:15:12;20.80;95.70
782;DHT22;374;52.568;13.402;2023-07-02T12:17:38;20.90;95.80
782;DHT22;374;52.568;13.402;2023-07-02T12:20:03;20.90;96.60
782;DHT22;374;52.568;13.402;2023-07-02T12:22:29;20.90;96.80
782;DHT22;374;52.568;13.402;2023-07-02T12:24:55;20.90;98.60
782;DHT22;374;52.568;13.402;2023-07-02T12:27:21;20.90;96.20
782;DHT22;374;52.568;13.402;2023-07-02T12:29:47;20.90;94.30
782;DHT22;374;52.568;13.402;2023-07-02T12:32:14;20.90;96.60
782;DHT22;374;52.568;13.402;2023-07-02T12:34:40;20.90;94.80
782;DHT22;374;52.568;13.402;2023-07-02T12:37:05;20.90;97.70
782;DHT22;374;52.568;13.402;2023-07-02T12:39:31;20.90;96.00
782;DHT22;374;52.568;13.402;2023-07-02T12:41:56;20.90;95.90
782;DHT22;374;52.568;13.402;2023-07-02T12:44:22;20.90;95.80
782;DHT22;374;52.568;13.402;2023-07-02T12:46:48;20.90;96.50
782;DHT22;374;52.568;13.402;2023-07-02T12:49:13;21.00;96.90
782;DHT22;374;52.568;13.402;2023-07-02T12:51:39;20.90;94.80
782;DHT22;374;52.568;13.402;2023-07-02T12:54:04;20.90;95.30
782;DHT22;374;52.568;13.402;2023-07-02T12:56:30;21.00;93.10
782;DHT22;374;52.568;13.402;2023-07-02T12:58:56;20.90;93.00
782;DHT22;374;52.568;13.402;2023-07-02T13:01:21;21.00;94.90
782;DHT22;374;52.568;13.402;2023-07-02T13:03:47;21.00;94.50
782;DHT22;374;52.568;13.402;2023-07-02T13:06:14;21.00;93.70
782;DHT22;374;52.568;13.402;2023-07-02T13:08:40;21.00;94.10
782;DHT22;374;52.568;13.402;2023-07-02T13:11:05;21.00;95.30
782;DHT22;374;52.568;13.402;2023-07-02T13:13:31;21.00;94.10
782;DHT22;374;52.568;13.402;2023-07-02T13:15:56;21.00;94.40
782;DHT22;374;52.568;13.402;2023-07-02T13:18:23;21.00;94.30
782;DHT22;374;52.568;13.402;2023-07-02T13:20:48;21.00;93.50
782;DHT22;374;52.568;13.402;2023-07-02T13:23:14;21.10;93.80
782;DHT22;374;52.568;13.402;2023-07-02T13:25:39;21.00;93.70
782;DHT22;374;52.568;13.402;2023-07-02T13:28:05;21.00;93.90
782;DHT22;374;52.568;13.402;2023-07-02T13:30:30;21.00;93.50
782;DHT22;374;52.568;13.402;2023-07-02T13:32:56;21.00;93.80
782;DHT22;374;52.568;13.402;2023-07-02T13:35:22;21.10;95.00
782;DHT22;374;52.568;13.402;2023-07-02T13:37:48;21.10;94.80
782;DHT22;374;52.568;13.402;2023-07-02T13:40:13;21.00;92.00
782;DHT22;374;52.568;13.402;2023-07-02T13:42:40;21.10;92.70
782;DHT22;374;52.568;13.402;2023-07-02T13:45:07;21.10;92.50
782;DHT22;374;52.568;13.402;2023-07-02T13:47:34;21.10;91.40
782;DHT22;374;52.568;13.402;2023-07-02T13:49:59;21.10;92.30
782;DHT22;374;52.568;13.402;2023-07-02T13:52:25;21.10;91.00
782;DHT22;374;52.568;13.402;2023-07-02T13:54:50;21.10;90.90
782;DHT22;374;52.568;13.402;2023-07-02T13:57:16;21.10;90.80
782;DHT22;374;52.568;13.402;2023-07-02T13:59:41;21.10;91.60
782;DHT22;374;52.568;13.402;2023-07-02T14:02:07;21.10;91.40
782;DHT22;374;52.568;13.402;2023-07-02T14:04:33;21.10;91.80
782;DHT22;374;52.568;13.402;2023-07-02T14:06:58;21.10;90.40
782;DHT22;374;52.568;13.402;2023-07-02T14:09:24;21.10;91.40
782;DHT22;374;52.568;13.402;2023-07-02T14:11:49;21.10;90.90
782;DHT22;374;52.568;13.402;2023-07-02T14:14:15;21.10;90.30
782;DHT22;374;52.568;13.402;2023-07-02T14:16:40;21.10;91.30
782;DHT22;374;52.568;13.402;2023-07-02T14:19:06;21.10;89.90
782;DHT22;374;52.568;13.402;2023-07-02T14:21:32;21.10;90.10
782;DHT22;374;52.568;13.402;2023-07-02T14:23:58;21.10;89.90
782;DHT22;374;52.568;13.402;2023-07-02T14:26:24;21.10;90.30
782;DHT22;374;52.568;13.402;2023-07-02T14:28:50;21.10;91.00
782;DHT22;374;52.568;13.402;2023-07-02T14:31:15;21.10;88.60
782;DHT22;374;52.568;13.402;2023-07-02T14:33:41;21.10;92.00
782;DHT22;374;52.568;13.402;2023-07-02T14:36:07;21.10;89.70
782;DHT22;374;52.568;13.402;2023-07-02T14:38:33;21.10;89.20
782;DHT22;374;52.568;13.402;2023-07-02T14:40:59;21.10;90.30
782;DHT22;374;52.568;13.402;2023-07-02T14:43:27;21.10;90.90
782;DHT22;374;52.568;13.402;2023-07-02T14:45:54;21.10;88.70
782;DHT22;374;52.568;13.402;2023-07-02T14:48:20;21.10;90.10
782;DHT22;374;52.568;13.402;2023-07-02T14:50:55;21.20;89.20
782;DHT22;374;52.568;13.402;2023-07-02T14:53:22;21.20;90.20
782;DHT22;374;52.568;13.402;2023-07-02T14:55:47;21.20;90.00
782;DHT22;374;52.568;13.402;2023-07-02T14:58:14;21.20;88.50
782;DHT22;374;52.568;13.402;2023-07-02T15:00:48;21.20;88.50
782;DHT22;374;52.568;13.402;2023-07-02T15:03:14;21.20;89.60
782;DHT22;374;52.568;13.402;2023-07-02T15:05:40;21.20;88.00
782;DHT22;374;52.568;13.402;2023-07-02T15:08:07;21.20;88.00
782;DHT22;374;52.568;13.402;2023-07-02T15:10:34;21.20;88.00
782;DHT22;374;52.568;13.402;2023-07-02T15:13:00;21.20;89.60
782;DHT22;374;52.568;13.402;2023-07-02T15:15:25;21.20;89.30
782;DHT22;374;52.568;13.402;2023-07-02T15:17:50;21.20;89.60
782;DHT22;374;52.568;13.402;2023-07-02T15:20:16;21.20;90.40
782;DHT22;374;52.568;13.402;2023-07-02T15:22:41;21.20;86.30
782;DHT22;374;52.568;13.402;2023-07-02T15:25:07;21.20;88.50
782;DHT22;374;52.568;13.402;2023-07-02T15:27:33;21.20;89.00
782;DHT22;374;52.568;13.402;2023-07-02T15:29:58;21.20;88.10
782;DHT22;374;52.568;13.402;2023-07-02T15:32:24;21.20;88.70
782;DHT22;374;52.568;13.402;2023-07-02T15:34:49;21.20;86.30
782;DHT22;374;52.568;13.402;2023-07-02T15:37:15;21.20;89.00
782;DHT22;374;52.568;13.402;2023-07-02T15:39:40;21.20;85.50
782;DHT22;374;52.568;13.402;2023-07-02T15:42:06;21.20;86.90
782;DHT22;374;52.568;13.402;2023-07-02T15:44:32;21.20;87.90
782;DHT22;374;52.568;13.402;2023-07-02T15:46:57;21.20;86.20
782;DHT22;374;52.568;13.402;2023-07-02T15:49:24;21.20;87.30
782;DHT22;374;52.568;13.402;2023-07-02T15:51:50;21.20;88.50
782;DHT22;374;52.568;13.402;2023-07-02T15:54:15;21.20;85.80
782;DHT22;374;52.568;13.402;2023-07-02T15:56:41;21.20;84.70
782;DHT22;374;52.568;13.402;2023-07-02T15:59:06;21.20;86.60
782;DHT22;374;52.568;13.402;2023-07-02T16:01:34;21.20;87.20
782;DHT22;374;52.568;13.402;2023-07-02T16:04:00;21.20;86.10
782;DHT22;374;52.568;13.402;2023-07-02T16:06:27;21.20;83.90
782;DHT22;374;52.568;13.402;2023-07-02T16:09:02;21.20;84.00
782;DHT22;374;52.568;13.402;2023-07-02T16:11:28;21.20;87.30